sensor_id;sensor_type;location;lat;lon;timestamp;P1;durP1;ratioP1;P2;durP2;ratioP2
12591;SDS011;6361;52.120;5.108;2024-01-30T00:00:37;22.90;;;14.20;;
12591;SDS011;6361;52.120;5.108;2024-01-30T00:03:02;19.83;;;13.32;;
12591;SDS011;6361;52.120;5.108;2024-01-30T00:05:27;19.30;;;13.18;;
12591;SDS011;6361;52.120;5.108;2024-01-30T00:07:53;23.30;;;14.23;;
12591;SDS011;6361;52.120;5.108;2024-01-30T00:10:18;19.95;;;13.73;;
12591;SDS011;6361;52.120;5.108;2024-01-30T00:12:43;19.77;;;13.43;;
12591;SDS011;6361;52.120;5.108;2024-01-30T00:15:09;21.33;;;13.70;;
12591;SDS011;6361;52.120;5.108;2024-01-30T00:17:35;19.90;;;14.05;;
12591;SDS011;6361;52.120;5.108;2024-01-30T00:20:02;20.33;;;13.73;;
12591;SDS011;6361;52.120;5.108;2024-01-30T00:22:30;20.73;;;14.25;;
12591;SDS011;6361;52.120;5.108;2024-01-30T00:24:56;22.95;;;13.82;;
12591;SDS011;6361;52.120;5.108;2024-01-30T00:27:21;19.63;;;13.35;;
12591;SDS011;6361;52.120;5.108;2024-01-30T00:29:46;19.70;;;13.25;;
12591;SDS011;6361;52.120;5.108;2024-01-30T00:32:12;19.92;;;12.65;;
12591;SDS011;6361;52.120;5.108;2024-01-30T00:34:37;21.85;;;13.45;;
12591;SDS011;6361;52.120;5.108;2024-01-30T00:37:02;22.77;;;13.75;;
12591;SDS011;6361;52.120;5.108;2024-01-30T00:39:28;17.85;;;13.10;;
12591;SDS011;6361;52.120;5.108;2024-01-30T00:41:53;19.55;;;12.73;;
12591;SDS011;6361;52.120;5.108;2024-01-30T00:44:19;21.23;;;13.80;;
12591;SDS011;6361;52.120;5.108;2024-01-30T00:46:44;20.83;;;13.75;;
12591;SDS011;6361;52.120;5.108;2024-01-30T00:49:10;20.75;;;13.50;;
12591;SDS011;6361;52.120;5.108;2024-01-30T00:51:35;20.48;;;13.30;;
12591;SDS011;6361;52.120;5.108;2024-01-30T00:54:01;19.40;;;12.13;;
12591;SDS011;6361;52.120;5.108;2024-01-30T00:56:27;20.05;;;13.38;;
12591;SDS011;6361;52.120;5.108;2024-01-30T00:58:53;20.25;;;13.50;;
12591;SDS011;6361;52.120;5.108;2024-01-30T01:01:18;20.00;;;13.02;;
12591;SDS011;6361;52.120;5.108;2024-01-30T01:03:46;18.85;;;12.82;;
12591;SDS011;6361;52.120;5.108;2024-01-30T01:06:12;21.65;;;13.07;;
12591;SDS011;6361;52.120;5.108;2024-01-30T01:08:38;17.33;;;12.50;;
12591;SDS011;6361;52.120;5.108;2024-01-30T01:11:03;18.88;;;12.10;;
12591;SDS011;6361;52.120;5.108;2024-01-30T01:13:28;17.58;;;12.02;;
12591;SDS011;6361;52.120;5.108;2024-01-30T01:15:54;19.27;;;12.73;;
12591;SDS011;6361;52.120;5.108;2024-01-30T01:18:19;18.67;;;12.07;;
12591;SDS011;6361;52.120;5.108;2024-01-30T01:20:45;17.02;;;12.60;;
12591;SDS011;6361;52.120;5.108;2024-01-30T01:23:10;20.85;;;12.82;;
12591;SDS011;6361;52.120;5.108;2024-01-30T01:25:36;16.20;;;12.90;;
12591;SDS011;6361;52.120;5.108;2024-01-30T01:28:01;16.65;;;12.35;;
12591;SDS011;6361;52.120;5.108;2024-01-30T01:30:27;17.23;;;12.15;;
12591;SDS011;6361;52.120;5.108;2024-01-30T01:32:54;19.42;;;13.00;;
12591;SDS011;6361;52.120;5.108;2024-01-30T01:35:25;17.60;;;12.10;;
12591;SDS011;6361;52.120;5.108;2024-01-30T01:37:51;16.85;;;12.02;;
12591;SDS011;6361;52.120;5.108;2024-01-30T01:40:23;19.02;;;11.95;;
12591;SDS011;6361;52.120;5.108;2024-01-30T01:42:49;17.27;;;11.90;;
12591;SDS011;6361;52.120;5.108;2024-01-30T01:45:15;18.13;;;12.50;;
12591;SDS011;6361;52.120;5.108;2024-01-30T01:47:41;19.85;;;11.68;;
12591;SDS011;6361;52.120;5.108;2024-01-30T01:50:07;17.35;;;12.35;;
12591;SDS011;6361;52.120;5.108;2024-01-30T01:52:33;17.73;;;11.75;;
12591;SDS011;6361;52.120;5.108;2024-01-30T01:54:58;20.55;;;12.55;;
12591;SDS011;6361;52.120;5.108;2024-01-30T01:57:24;19.27;;;11.63;;
12591;SDS011;6361;52.120;5.108;2024-01-30T01:59:49;16.88;;;11.90;;
12591;SDS011;6361;52.120;5.108;2024-01-30T02:02:15;17.83;;;11.73;;
12591;SDS011;6361;52.120;5.108;2024-01-30T02:04:42;16.85;;;12.10;;
12591;SDS011;6361;52.120;5.108;2024-01-30T02:07:08;19.27;;;11.73;;
12591;SDS011;6361;52.120;5.108;2024-01-30T02:09:33;18.17;;;11.15;;
12591;SDS011;6361;52.120;5.108;2024-01-30T02:11:59;16.30;;;11.18;;
12591;SDS011;6361;52.120;5.108;2024-01-30T02:14:25;15.70;;;11.85;;
12591;SDS011;6361;52.120;5.108;2024-01-30T02:16:50;20.20;;;11.60;;
12591;SDS011;6361;52.120;5.108;2024-01-30T02:19:16;19.05;;;12.48;;
12591;SDS011;6361;52.120;5.108;2024-01-30T02:21:41;15.57;;;11.88;;
12591;SDS011;6361;52.120;5.108;2024-01-30T02:24:06;19.02;;;11.52;;
12591;SDS011;6361;52.120;5.108;2024-01-30T02:26:32;19.02;;;12.55;;
12591;SDS011;6361;52.120;5.108;2024-01-30T02:28:57;20.88;;;12.98;;
12591;SDS011;6361;52.120;5.108;2024-01-30T02:31:22;16.92;;;11.93;;
12591;SDS011;6361;52.120;5.108;2024-01-30T02:33:50;19.02;;;12.38;;
12591;SDS011;6361;52.120;5.108;2024-01-30T02:36:15;17.02;;;12.35;;
12591;SDS011;6361;52.120;5.108;2024-01-30T02:38:41;20.73;;;12.43;;
12591;SDS011;6361;52.120;5.108;2024-01-30T02:41:06;18.42;;;12.05;;
12591;SDS011;6361;52.120;5.108;2024-01-30T02:43:31;17.67;;;11.63;;
12591;SDS011;6361;52.120;5.108;2024-01-30T02:45:57;21.42;;;12.05;;
12591;SDS011;6361;52.120;5.108;2024-01-30T02:48:24;15.40;;;11.60;;
12591;SDS011;6361;52.120;5.108;2024-01-30T02:50:50;16.02;;;12.43;;
12591;SDS011;6361;52.120;5.108;2024-01-30T02:53:15;17.02;;;12.48;;
12591;SDS011;6361;52.120;5.108;2024-01-30T02:55:40;19.85;;;12.40;;
12591;SDS011;6361;52.120;5.108;2024-01-30T02:58:06;17.98;;;12.10;;
12591;SDS011;6361;52.120;5.108;2024-01-30T03:00:31;16.05;;;11.82;;
12591;SDS011;6361;52.120;5.108;2024-01-30T03:02:57;20.10;;;12.32;;
12591;SDS011;6361;52.120;5.108;2024-01-30T03:05:22;18.92;;;12.40;;
12591;SDS011;6361;52.120;5.108;2024-01-30T03:07:47;18.98;;;12.02;;
12591;SDS011;6361;52.120;5.108;2024-01-30T03:10:13;19.02;;;12.02;;
12591;SDS011;6361;52.120;5.108;2024-01-30T03:12:38;19.30;;;11.55;;
12591;SDS011;6361;52.120;5.108;2024-01-30T03:15:04;17.52;;;11.60;;
12591;SDS011;6361;52.120;5.108;2024-01-30T03:17:29;18.15;;;12.55;;
12591;SDS011;6361;52.120;5.108;2024-01-30T03:19:54;20.00;;;13.05;;
12591;SDS011;6361;52.120;5.108;2024-01-30T03:22:22;20.75;;;12.98;;
12591;SDS011;6361;52.120;5.108;2024-01-30T03:24:48;19.50;;;12.18;;
12591;SDS011;6361;52.120;5.108;2024-01-30T03:27:13;16.95;;;12.50;;
12591;SDS011;6361;52.120;5.108;2024-01-30T03:29:38;17.70;;;12.52;;
12591;SDS011;6361;52.120;5.108;2024-01-30T03:32:04;16.45;;;12.15;;
12591;SDS011;6361;52.120;5.108;2024-01-30T03:34:29;19.02;;;11.95;;
12591;SDS011;6361;52.120;5.108;2024-01-30T03:36:55;15.30;;;11.35;;
12591;SDS011;6361;52.120;5.108;2024-01-30T03:39:20;17.33;;;12.10;;
12591;SDS011;6361;52.120;5.108;2024-01-30T03:41:46;17.25;;;12.90;;
12591;SDS011;6361;52.120;5.108;2024-01-30T03:44:11;16.40;;;12.02;;
12591;SDS011;6361;52.120;5.108;2024-01-30T03:46:36;20.83;;;12.25;;
12591;SDS011;6361;52.120;5.108;2024-01-30T03:49:02;17.08;;;11.98;;
12591;SDS011;6361;52.120;5.108;2024-01-30T03:51:27;17.67;;;12.93;;
12591;SDS011;6361;52.120;5.108;2024-01-30T03:53:53;18.10;;;12.18;;
12591;SDS011;6361;52.120;5.108;2024-01-30T03:56:18;20.73;;;12.50;;
12591;SDS011;6361;52.120;5.108;2024-01-30T03:58:43;18.30;;;12.13;;
12591;SDS011;6361;52.120;5.108;2024-01-30T04:01:12;19.33;;;12.23;;
12591;SDS011;6361;52.120;5.108;2024-01-30T04:03:39;17.15;;;12.18;;
12591;SDS011;6361;52.120;5.108;2024-01-30T04:06:04;18.65;;;12.55;;
12591;SDS011;6361;52.120;5.108;2024-01-30T04:08:29;21.38;;;12.70;;
12591;SDS011;6361;52.120;5.108;2024-01-30T04:10:55;17.38;;;11.90;;
12591;SDS011;6361;52.120;5.108;2024-01-30T04:13:20;18.80;;;11.77;;
12591;SDS011;6361;52.120;5.108;2024-01-30T04:15:45;18.65;;;11.93;;
12591;SDS011;6361;52.120;5.108;2024-01-30T04:18:11;16.23;;;11.98;;
12591;SDS011;6361;52.120;5.108;2024-01-30T04:20:36;17.33;;;12.20;;
12591;SDS011;6361;52.120;5.108;2024-01-30T04:23:02;20.10;;;12.20;;
12591;SDS011;6361;52.120;5.108;2024-01-30T04:25:27;20.90;;;12.95;;
12591;SDS011;6361;52.120;5.108;2024-01-30T04:27:52;17.75;;;11.20;;
12591;SDS011;6361;52.120;5.108;2024-01-30T04:30:18;22.05;;;12.43;;
12591;SDS011;6361;52.120;5.108;2024-01-30T04:32:43;19.40;;;12.02;;
12591;SDS011;6361;52.120;5.108;2024-01-30T04:35:09;17.45;;;11.98;;
12591;SDS011;6361;52.120;5.108;2024-01-30T04:37:34;18.15;;;11.60;;
12591;SDS011;6361;52.120;5.108;2024-01-30T04:39:59;17.58;;;12.00;;
12591;SDS011;6361;52.120;5.108;2024-01-30T04:42:28;18.23;;;11.77;;
12591;SDS011;6361;52.120;5.108;2024-01-30T04:44:53;19.08;;;12.25;;
12591;SDS011;6361;52.120;5.108;2024-01-30T04:47:18;14.73;;;11.57;;
12591;SDS011;6361;52.120;5.108;2024-01-30T04:49:46;21.20;;;12.05;;
12591;SDS011;6361;52.120;5.108;2024-01-30T04:52:11;18.85;;;11.65;;
12591;SDS011;6361;52.120;5.108;2024-01-30T04:54:37;17.65;;;11.30;;
12591;SDS011;6361;52.120;5.108;2024-01-30T04:57:02;17.95;;;11.85;;
12591;SDS011;6361;52.120;5.108;2024-01-30T04:59:28;18.67;;;11.77;;
12591;SDS011;6361;52.120;5.108;2024-01-30T05:01:53;18.83;;;11.80;;
12591;SDS011;6361;52.120;5.108;2024-01-30T05:04:19;20.35;;;11.50;;
12591;SDS011;6361;52.120;5.108;2024-01-30T05:06:44;19.83;;;11.30;;
12591;SDS011;6361;52.120;5.108;2024-01-30T05:09:10;19.80;;;11.02;;
12591;SDS011;6361;52.120;5.108;2024-01-30T05:11:41;17.63;;;11.05;;
12591;SDS011;6361;52.120;5.108;2024-01-30T05:16:34;17.10;;;10.68;;
12591;SDS011;6361;52.120;5.108;2024-01-30T05:19:00;16.95;;;11.20;;
12591;SDS011;6361;52.120;5.108;2024-01-30T05:21:26;15.18;;;11.40;;
12591;SDS011;6361;52.120;5.108;2024-01-30T05:23:51;16.33;;;11.30;;
12591;SDS011;6361;52.120;5.108;2024-01-30T05:26:16;20.52;;;11.52;;
12591;SDS011;6361;52.120;5.108;2024-01-30T05:28:42;15.73;;;10.38;;
12591;SDS011;6361;52.120;5.108;2024-01-30T05:31:09;18.55;;;11.38;;
12591;SDS011;6361;52.120;5.108;2024-01-30T05:33:35;17.50;;;10.68;;
12591;SDS011;6361;52.120;5.108;2024-01-30T05:36:03;18.35;;;10.57;;
12591;SDS011;6361;52.120;5.108;2024-01-30T05:38:28;16.02;;;11.27;;
12591;SDS011;6361;52.120;5.108;2024-01-30T05:40:55;17.60;;;10.77;;
12591;SDS011;6361;52.120;5.108;2024-01-30T05:43:20;18.70;;;11.40;;
12591;SDS011;6361;52.120;5.108;2024-01-30T05:45:45;17.33;;;10.88;;
12591;SDS011;6361;52.120;5.108;2024-01-30T05:48:11;17.80;;;10.57;;
12591;SDS011;6361;52.120;5.108;2024-01-30T05:50:36;16.10;;;10.77;;
12591;SDS011;6361;52.120;5.108;2024-01-30T05:53:02;16.70;;;11.45;;
12591;SDS011;6361;52.120;5.108;2024-01-30T05:55:27;17.67;;;10.88;;
12591;SDS011;6361;52.120;5.108;2024-01-30T05:57:52;14.13;;;10.35;;
12591;SDS011;6361;52.120;5.108;2024-01-30T06:00:18;17.50;;;10.98;;
12591;SDS011;6361;52.120;5.108;2024-01-30T06:02:43;15.90;;;11.18;;
12591;SDS011;6361;52.120;5.108;2024-01-30T06:05:09;16.90;;;10.68;;
12591;SDS011;6361;52.120;5.108;2024-01-30T06:07:34;14.80;;;10.75;;
12591;SDS011;6361;52.120;5.108;2024-01-30T06:10:00;18.27;;;10.07;;
12591;SDS011;6361;52.120;5.108;2024-01-30T06:12:27;17.90;;;10.80;;
12591;SDS011;6361;52.120;5.108;2024-01-30T06:14:52;17.88;;;10.68;;
12591;SDS011;6361;52.120;5.108;2024-01-30T06:17:19;14.93;;;10.02;;
12591;SDS011;6361;52.120;5.108;2024-01-30T06:19:44;16.65;;;10.75;;
12591;SDS011;6361;52.120;5.108;2024-01-30T06:22:10;15.88;;;10.10;;
12591;SDS011;6361;52.120;5.108;2024-01-30T06:24:35;18.83;;;10.43;;
12591;SDS011;6361;52.120;5.108;2024-01-30T06:27:00;13.98;;;9.85;;
12591;SDS011;6361;52.120;5.108;2024-01-30T06:29:26;19.08;;;10.80;;
12591;SDS011;6361;52.120;5.108;2024-01-30T06:31:51;14.05;;;10.00;;
12591;SDS011;6361;52.120;5.108;2024-01-30T06:34:17;13.80;;;10.20;;
12591;SDS011;6361;52.120;5.108;2024-01-30T06:36:42;15.27;;;10.15;;
12591;SDS011;6361;52.120;5.108;2024-01-30T06:39:07;17.17;;;10.15;;
12591;SDS011;6361;52.120;5.108;2024-01-30T06:41:33;17.90;;;9.68;;
12591;SDS011;6361;52.120;5.108;2024-01-30T06:43:59;17.23;;;9.95;;
12591;SDS011;6361;52.120;5.108;2024-01-30T06:46:26;15.02;;;9.88;;
12591;SDS011;6361;52.120;5.108;2024-01-30T06:48:52;15.18;;;10.15;;
12591;SDS011;6361;52.120;5.108;2024-01-30T06:51:17;15.32;;;10.57;;
12591;SDS011;6361;52.120;5.108;2024-01-30T06:53:43;15.82;;;10.60;;
12591;SDS011;6361;52.120;5.108;2024-01-30T06:56:08;15.35;;;10.35;;
12591;SDS011;6361;52.120;5.108;2024-01-30T06:58:33;16.50;;;10.23;;
12591;SDS011;6361;52.120;5.108;2024-01-30T07:00:59;16.80;;;10.38;;
12591;SDS011;6361;52.120;5.108;2024-01-30T07:03:24;18.25;;;10.15;;
12591;SDS011;6361;52.120;5.108;2024-01-30T07:05:50;13.25;;;9.73;;
12591;SDS011;6361;52.120;5.108;2024-01-30T07:08:15;16.17;;;10.32;;
12591;SDS011;6361;52.120;5.108;2024-01-30T07:10:44;16.60;;;9.75;;
12591;SDS011;6361;52.120;5.108;2024-01-30T07:13:10;15.88;;;11.05;;
12591;SDS011;6361;52.120;5.108;2024-01-30T07:15:36;16.10;;;10.50;;
12591;SDS011;6361;52.120;5.108;2024-01-30T07:18:02;20.40;;;10.73;;
12591;SDS011;6361;52.120;5.108;2024-01-30T07:20:27;20.77;;;10.60;;
12591;SDS011;6361;52.120;5.108;2024-01-30T07:22:55;17.90;;;10.88;;
12591;SDS011;6361;52.120;5.108;2024-01-30T07:25:20;16.35;;;10.18;;
12591;SDS011;6361;52.120;5.108;2024-01-30T07:27:46;15.68;;;10.23;;
12591;SDS011;6361;52.120;5.108;2024-01-30T07:30:12;16.90;;;10.57;;
12591;SDS011;6361;52.120;5.108;2024-01-30T07:32:37;17.70;;;10.75;;
12591;SDS011;6361;52.120;5.108;2024-01-30T07:35:03;17.00;;;10.63;;
12591;SDS011;6361;52.120;5.108;2024-01-30T07:37:28;16.40;;;10.68;;
12591;SDS011;6361;52.120;5.108;2024-01-30T07:39:54;19.63;;;10.07;;
12591;SDS011;6361;52.120;5.108;2024-01-30T07:42:19;18.50;;;10.60;;
12591;SDS011;6361;52.120;5.108;2024-01-30T07:44:44;16.95;;;9.77;;
12591;SDS011;6361;52.120;5.108;2024-01-30T07:47:10;15.32;;;9.57;;
12591;SDS011;6361;52.120;5.108;2024-01-30T07:49:35;15.93;;;9.90;;
12591;SDS011;6361;52.120;5.108;2024-01-30T07:52:01;15.40;;;9.85;;
12591;SDS011;6361;52.120;5.108;2024-01-30T07:54:26;17.58;;;10.00;;
12591;SDS011;6361;52.120;5.108;2024-01-30T07:57:13;16.17;;;9.90;;
12591;SDS011;6361;52.120;5.108;2024-01-30T07:59:38;16.52;;;9.65;;
12591;SDS011;6361;52.120;5.108;2024-01-30T08:02:04;17.35;;;10.60;;
12591;SDS011;6361;52.120;5.108;2024-01-30T08:04:29;16.17;;;10.38;;
12591;SDS011;6361;52.120;5.108;2024-01-30T08:06:54;18.60;;;10.40;;
12591;SDS011;6361;52.120;5.108;2024-01-30T08:09:20;17.08;;;9.73;;
12591;SDS011;6361;52.120;5.108;2024-01-30T08:11:45;17.35;;;10.07;;
12591;SDS011;6361;52.120;5.108;2024-01-30T08:14:10;18.38;;;9.95;;
12591;SDS011;6361;52.120;5.108;2024-01-30T08:16:36;18.98;;;10.45;;
12591;SDS011;6361;52.120;5.108;2024-01-30T08:19:01;19.08;;;10.13;;
12591;SDS011;6361;52.120;5.108;2024-01-30T08:21:28;15.15;;;10.00;;
12591;SDS011;6361;52.120;5.108;2024-01-30T08:23:53;19.17;;;10.38;;
12591;SDS011;6361;52.120;5.108;2024-01-30T08:26:19;17.77;;;10.70;;
12591;SDS011;6361;52.120;5.108;2024-01-30T08:28:44;16.67;;;10.10;;
12591;SDS011;6361;52.120;5.108;2024-01-30T08:31:12;18.70;;;10.30;;
12591;SDS011;6361;52.120;5.108;2024-01-30T08:33:38;18.08;;;10.02;;
12591;SDS011;6361;52.120;5.108;2024-01-30T08:36:03;18.50;;;10.57;;
12591;SDS011;6361;52.120;5.108;2024-01-30T08:38:29;22.80;;;10.35;;
12591;SDS011;6361;52.120;5.108;2024-01-30T08:40:55;22.98;;;10.55;;
12591;SDS011;6361;52.120;5.108;2024-01-30T08:43:21;21.67;;;10.07;;
12591;SDS011;6361;52.120;5.108;2024-01-30T08:45:46;19.15;;;10.65;;
12591;SDS011;6361;52.120;5.108;2024-01-30T08:48:12;21.65;;;10.80;;
12591;SDS011;6361;52.120;5.108;2024-01-30T08:50:37;22.40;;;10.35;;
12591;SDS011;6361;52.120;5.108;2024-01-30T08:53:02;20.67;;;10.52;;
12591;SDS011;6361;52.120;5.108;2024-01-30T08:55:28;22.88;;;10.48;;
12591;SDS011;6361;52.120;5.108;2024-01-30T08:57:53;20.42;;;10.23;;
12591;SDS011;6361;52.120;5.108;2024-01-30T09:00:19;19.23;;;10.32;;
12591;SDS011;6361;52.120;5.108;2024-01-30T09:02:44;18.48;;;10.45;;
12591;SDS011;6361;52.120;5.108;2024-01-30T09:05:10;18.00;;;10.43;;
12591;SDS011;6361;52.120;5.108;2024-01-30T09:07:35;21.33;;;10.50;;
12591;SDS011;6361;52.120;5.108;2024-01-30T09:10:00;18.90;;;10.65;;
12591;SDS011;6361;52.120;5.108;2024-01-30T09:12:26;16.33;;;10.48;;
12591;SDS011;6361;52.120;5.108;2024-01-30T09:14:51;22.10;;;10.45;;
12591;SDS011;6361;52.120;5.108;2024-01-30T09:17:17;21.88;;;10.77;;
12591;SDS011;6361;52.120;5.108;2024-01-30T09:19:42;17.35;;;10.38;;
12591;SDS011;6361;52.120;5.108;2024-01-30T09:22:07;19.65;;;11.00;;
12591;SDS011;6361;52.120;5.108;2024-01-30T09:24:32;18.00;;;10.07;;
12591;SDS011;6361;52.120;5.108;2024-01-30T09:26:58;18.08;;;10.77;;
12591;SDS011;6361;52.120;5.108;2024-01-30T09:29:23;16.90;;;10.20;;
12591;SDS011;6361;52.120;5.108;2024-01-30T09:31:49;16.85;;;10.85;;
12591;SDS011;6361;52.120;5.108;2024-01-30T09:34:14;19.45;;;10.75;;
12591;SDS011;6361;52.120;5.108;2024-01-30T09:36:39;19.25;;;10.50;;
12591;SDS011;6361;52.120;5.108;2024-01-30T09:39:05;19.42;;;10.88;;
12591;SDS011;6361;52.120;5.108;2024-01-30T09:41:36;23.17;;;11.35;;
12591;SDS011;6361;52.120;5.108;2024-01-30T09:44:18;21.77;;;10.98;;
12591;SDS011;6361;52.120;5.108;2024-01-30T09:46:46;19.85;;;10.88;;
12591;SDS011;6361;52.120;5.108;2024-01-30T09:49:12;16.63;;;10.73;;
12591;SDS011;6361;52.120;5.108;2024-01-30T09:51:39;18.02;;;11.43;;
12591;SDS011;6361;52.120;5.108;2024-01-30T09:54:05;17.60;;;11.43;;
12591;SDS011;6361;52.120;5.108;2024-01-30T09:56:30;20.20;;;11.20;;
12591;SDS011;6361;52.120;5.108;2024-01-30T09:58:56;19.80;;;11.25;;
12591;SDS011;6361;52.120;5.108;2024-01-30T10:01:21;18.10;;;11.40;;
12591;SDS011;6361;52.120;5.108;2024-01-30T10:03:47;19.17;;;11.20;;
12591;SDS011;6361;52.120;5.108;2024-01-30T10:06:12;17.73;;;10.23;;
12591;SDS011;6361;52.120;5.108;2024-01-30T10:08:42;22.88;;;10.75;;
12591;SDS011;6361;52.120;5.108;2024-01-30T10:11:08;14.77;;;9.93;;
12591;SDS011;6361;52.120;5.108;2024-01-30T10:13:33;17.65;;;10.70;;
12591;SDS011;6361;52.120;5.108;2024-01-30T10:15:58;20.75;;;10.80;;
12591;SDS011;6361;52.120;5.108;2024-01-30T10:18:24;22.00;;;10.32;;
12591;SDS011;6361;52.120;5.108;2024-01-30T10:20:49;16.85;;;9.90;;
12591;SDS011;6361;52.120;5.108;2024-01-30T10:23:15;17.40;;;10.40;;
12591;SDS011;6361;52.120;5.108;2024-01-30T10:25:40;20.90;;;10.40;;
12591;SDS011;6361;52.120;5.108;2024-01-30T10:28:06;16.67;;;9.80;;
12591;SDS011;6361;52.120;5.108;2024-01-30T10:30:32;20.08;;;10.25;;
12591;SDS011;6361;52.120;5.108;2024-01-30T10:32:57;17.15;;;9.88;;
12591;SDS011;6361;52.120;5.108;2024-01-30T10:35:22;20.35;;;10.18;;
12591;SDS011;6361;52.120;5.108;2024-01-30T10:37:48;18.38;;;10.40;;
12591;SDS011;6361;52.120;5.108;2024-01-30T10:40:14;17.63;;;10.77;;
12591;SDS011;6361;52.120;5.108;2024-01-30T10:42:44;20.05;;;10.23;;
12591;SDS011;6361;52.120;5.108;2024-01-30T10:45:13;18.35;;;9.68;;
12591;SDS011;6361;52.120;5.108;2024-01-30T10:47:42;19.10;;;9.18;;
12591;SDS011;6361;52.120;5.108;2024-01-30T10:50:09;22.48;;;9.45;;
12591;SDS011;6361;52.120;5.108;2024-01-30T10:52:35;14.80;;;8.55;;
12591;SDS011;6361;52.120;5.108;2024-01-30T10:55:01;16.30;;;8.45;;
12591;SDS011;6361;52.120;5.108;2024-01-30T10:57:30;18.80;;;7.70;;
12591;SDS011;6361;52.120;5.108;2024-01-30T10:59:56;11.18;;;7.60;;
12591;SDS011;6361;52.120;5.108;2024-01-30T11:02:23;16.70;;;7.95;;
12591;SDS011;6361;52.120;5.108;2024-01-30T11:04:50;14.95;;;7.47;;
12591;SDS011;6361;52.120;5.108;2024-01-30T11:07:16;14.10;;;6.78;;
12591;SDS011;6361;52.120;5.108;2024-01-30T11:09:51;15.75;;;6.60;;
12591;SDS011;6361;52.120;5.108;2024-01-30T11:12:21;14.45;;;6.55;;
12591;SDS011;6361;52.120;5.108;2024-01-30T11:14:48;11.18;;;6.03;;
12591;SDS011;6361;52.120;5.108;2024-01-30T11:17:13;10.90;;;6.15;;
12591;SDS011;6361;52.120;5.108;2024-01-30T11:19:38;18.17;;;6.10;;
12591;SDS011;6361;52.120;5.108;2024-01-30T11:22:07;13.95;;;5.47;;
12591;SDS011;6361;52.120;5.108;2024-01-30T11:24:38;10.48;;;4.97;;
12591;SDS011;6361;52.120;5.108;2024-01-30T11:27:07;13.90;;;4.10;;
12591;SDS011;6361;52.120;5.108;2024-01-30T11:29:34;9.80;;;3.53;;
12591;SDS011;6361;52.120;5.108;2024-01-30T11:32:00;6.68;;;3.60;;
12591;SDS011;6361;52.120;5.108;2024-01-30T11:34:25;5.85;;;2.72;;
12591;SDS011;6361;52.120;5.108;2024-01-30T11:37:02;10.40;;;4.55;;
12591;SDS011;6361;52.120;5.108;2024-01-30T11:39:31;7.78;;;4.38;;
12591;SDS011;6361;52.120;5.108;2024-01-30T11:41:57;9.38;;;4.72;;
12591;SDS011;6361;52.120;5.108;2024-01-30T11:44:23;9.43;;;5.88;;
12591;SDS011;6361;52.120;5.108;2024-01-30T11:46:49;9.73;;;5.20;;
12591;SDS011;6361;52.120;5.108;2024-01-30T11:49:15;15.23;;;5.53;;
12591;SDS011;6361;52.120;5.108;2024-01-30T11:51:42;10.52;;;5.13;;
12591;SDS011;6361;52.120;5.108;2024-01-30T11:54:08;10.02;;;5.03;;
12591;SDS011;6361;52.120;5.108;2024-01-30T11:56:33;8.65;;;4.05;;
12591;SDS011;6361;52.120;5.108;2024-01-30T11:58:59;12.60;;;3.35;;
12591;SDS011;6361;52.120;5.108;2024-01-30T12:01:25;9.38;;;2.97;;
12591;SDS011;6361;52.120;5.108;2024-01-30T12:03:51;7.43;;;2.33;;
12591;SDS011;6361;52.120;5.108;2024-01-30T12:06:17;11.18;;;2.90;;
12591;SDS011;6361;52.120;5.108;2024-01-30T12:08:42;6.53;;;2.45;;
12591;SDS011;6361;52.120;5.108;2024-01-30T12:11:08;7.53;;;2.55;;
12591;SDS011;6361;52.120;5.108;2024-01-30T12:13:33;7.47;;;2.10;;
12591;SDS011;6361;52.120;5.108;2024-01-30T12:16:02;5.32;;;2.20;;
12591;SDS011;6361;52.120;5.108;2024-01-30T12:18:28;10.35;;;2.88;;
12591;SDS011;6361;52.120;5.108;2024-01-30T12:20:57;8.18;;;2.13;;
12591;SDS011;6361;52.120;5.108;2024-01-30T12:23:26;7.90;;;2.20;;
12591;SDS011;6361;52.120;5.108;2024-01-30T12:25:52;8.85;;;2.70;;
12591;SDS011;6361;52.120;5.108;2024-01-30T12:28:17;11.00;;;2.60;;
12591;SDS011;6361;52.120;5.108;2024-01-30T12:30:43;8.55;;;2.70;;
12591;SDS011;6361;52.120;5.108;2024-01-30T12:33:08;8.73;;;2.75;;
12591;SDS011;6361;52.120;5.108;2024-01-30T12:35:35;6.00;;;2.72;;
12591;SDS011;6361;52.120;5.108;2024-01-30T12:38:00;6.25;;;2.22;;
12591;SDS011;6361;52.120;5.108;2024-01-30T12:40:26;4.88;;;1.92;;
12591;SDS011;6361;52.120;5.108;2024-01-30T12:42:53;4.70;;;1.80;;
12591;SDS011;6361;52.120;5.108;2024-01-30T12:45:19;4.93;;;2.05;;
12591;SDS011;6361;52.120;5.108;2024-01-30T12:47:47;6.25;;;1.95;;
12591;SDS011;6361;52.120;5.108;2024-01-30T12:50:13;8.43;;;1.60;;
12591;SDS011;6361;52.120;5.108;2024-01-30T12:52:40;3.90;;;1.45;;
12591;SDS011;6361;52.120;5.108;2024-01-30T12:55:06;4.13;;;1.42;;
12591;SDS011;6361;52.120;5.108;2024-01-30T12:57:31;6.70;;;1.42;;
12591;SDS011;6361;52.120;5.108;2024-01-30T12:59:57;3.13;;;1.15;;
12591;SDS011;6361;52.120;5.108;2024-01-30T13:02:23;10.90;;;1.40;;
12591;SDS011;6361;52.120;5.108;2024-01-30T13:04:48;7.55;;;1.75;;
12591;SDS011;6361;52.120;5.108;2024-01-30T13:07:13;8.60;;;1.30;;
12591;SDS011;6361;52.120;5.108;2024-01-30T13:09:39;9.35;;;1.30;;
12591;SDS011;6361;52.120;5.108;2024-01-30T13:12:04;10.55;;;1.40;;
12591;SDS011;6361;52.120;5.108;2024-01-30T13:14:30;7.03;;;1.45;;
12591;SDS011;6361;52.120;5.108;2024-01-30T13:16:55;8.48;;;1.50;;
12591;SDS011;6361;52.120;5.108;2024-01-30T13:19:20;5.72;;;1.73;;
12591;SDS011;6361;52.120;5.108;2024-01-30T13:21:46;6.70;;;1.60;;
12591;SDS011;6361;52.120;5.108;2024-01-30T13:24:12;13.38;;;2.28;;
12591;SDS011;6361;52.120;5.108;2024-01-30T13:26:38;5.45;;;1.98;;
12591;SDS011;6361;52.120;5.108;2024-01-30T13:29:04;5.95;;;1.85;;
12591;SDS011;6361;52.120;5.108;2024-01-30T13:31:29;9.52;;;2.58;;
12591;SDS011;6361;52.120;5.108;2024-01-30T13:33:55;11.40;;;2.45;;
12591;SDS011;6361;52.120;5.108;2024-01-30T13:36:20;9.02;;;2.75;;
12591;SDS011;6361;52.120;5.108;2024-01-30T13:38:46;6.68;;;2.35;;
12591;SDS011;6361;52.120;5.108;2024-01-30T13:41:12;8.82;;;2.83;;
12591;SDS011;6361;52.120;5.108;2024-01-30T13:43:37;14.02;;;3.17;;
12591;SDS011;6361;52.120;5.108;2024-01-30T13:46:02;9.95;;;4.07;;
12591;SDS011;6361;52.120;5.108;2024-01-30T13:48:28;12.07;;;3.88;;
12591;SDS011;6361;52.120;5.108;2024-01-30T13:50:54;11.90;;;4.20;;
12591;SDS011;6361;52.120;5.108;2024-01-30T13:53:20;11.13;;;4.03;;
12591;SDS011;6361;52.120;5.108;2024-01-30T13:55:48;8.52;;;4.13;;
12591;SDS011;6361;52.120;5.108;2024-01-30T13:58:13;12.75;;;4.38;;
12591;SDS011;6361;52.120;5.108;2024-01-30T14:00:38;13.82;;;4.05;;
12591;SDS011;6361;52.120;5.108;2024-01-30T14:03:04;12.02;;;4.07;;
12591;SDS011;6361;52.120;5.108;2024-01-30T14:05:29;12.00;;;4.32;;
12591;SDS011;6361;52.120;5.108;2024-01-30T14:07:55;10.95;;;4.15;;
12591;SDS011;6361;52.120;5.108;2024-01-30T14:10:21;14.18;;;4.05;;
12591;SDS011;6361;52.120;5.108;2024-01-30T14:12:47;11.07;;;3.60;;
12591;SDS011;6361;52.120;5.108;2024-01-30T14:15:13;15.60;;;4.20;;
12591;SDS011;6361;52.120;5.108;2024-01-30T14:17:40;11.27;;;4.38;;
12591;SDS011;6361;52.120;5.108;2024-01-30T14:20:05;9.82;;;4.20;;
12591;SDS011;6361;52.120;5.108;2024-01-30T14:22:32;14.23;;;4.93;;
12591;SDS011;6361;52.120;5.108;2024-01-30T14:24:58;11.55;;;4.60;;
12591;SDS011;6361;52.120;5.108;2024-01-30T14:27:24;13.18;;;5.03;;
12591;SDS011;6361;52.120;5.108;2024-01-30T14:29:49;9.18;;;4.75;;
12591;SDS011;6361;52.120;5.108;2024-01-30T14:32:15;13.35;;;4.90;;
12591;SDS011;6361;52.120;5.108;2024-01-30T14:34:40;11.43;;;4.70;;